createdAt,value
2022-12-06T00:00:09.686Z,5.78
2022-12-06T00:02:37.783Z,5.65
2022-12-06T00:05:06.293Z,5.07
2022-12-06T00:07:35.643Z,5.20
2022-12-06T00:10:03.605Z,4.82
2022-12-06T00:12:31.904Z,5.20
2022-12-06T00:14:59.829Z,4.95
2022-12-06T00:17:28.386Z,5.05
2022-12-06T00:19:56.448Z,5.15
2022-12-06T00:22:24.685Z,5.28
2022-12-06T00:24:54.009Z,5.22
2022-12-06T00:27:21.917Z,4.85
2022-12-06T00:29:50.124Z,5.00
2022-12-06T00:32:19.871Z,4.70
2022-12-06T00:34:47.967Z,4.72
2022-12-06T00:37:15.912Z,5.18
2022-12-06T00:39:43.825Z,4.93
2022-12-06T00:42:13.201Z,4.57
2022-12-06T00:44:41.125Z,5.00
2022-12-06T00:47:09.091Z,4.75
2022-12-06T00:49:37.055Z,4.18
2022-12-06T00:52:05.442Z,4.60
2022-12-06T00:54:33.382Z,4.53
2022-12-06T00:57:01.330Z,4.90
2022-12-06T00:59:30.612Z,5.00
2022-12-06T01:01:58.882Z,5.63
2022-12-06T01:04:26.769Z,5.53
2022-12-06T01:06:54.866Z,4.63
2022-12-06T01:09:22.948Z,5.18
2022-12-06T01:11:50.799Z,4.85
2022-12-06T01:14:18.643Z,4.72
2022-12-06T01:16:48.106Z,4.68
2022-12-06T01:19:16.081Z,5.38
2022-12-06T01:21:43.932Z,4.70
2022-12-06T01:24:11.838Z,5.07
2022-12-06T01:26:39.697Z,4.97
2022-12-06T01:29:07.618Z,5.47
2022-12-06T01:31:38.998Z,5.53
2022-12-06T01:34:14.601Z,5.25
2022-12-06T01:36:42.515Z,4.88
2022-12-06T01:39:11.409Z,5.45
2022-12-06T01:41:40.146Z,5.15
2022-12-06T01:44:08.656Z,5.90
2022-12-06T01:46:40.793Z,5.30
2022-12-06T01:49:18.280Z,5.95
2022-12-06T01:51:50.522Z,5.82
2022-12-06T01:54:21.039Z,6.00
2022-12-06T01:56:50.661Z,5.93
2022-12-06T01:59:18.875Z,5.35
2022-12-06T02:01:47.965Z,5.90
2022-12-06T02:04:18.289Z,5.53
2022-12-06T02:06:47.819Z,6.57
2022-12-06T02:09:18.223Z,6.25
2022-12-06T02:11:47.356Z,6.40
2022-12-06T02:14:18.840Z,6.05
2022-12-06T02:16:59.194Z,6.22
2022-12-06T02:20:03.740Z,6.70
2022-12-06T02:22:50.123Z,6.38
2022-12-06T02:25:47.806Z,6.25
2022-12-06T02:28:38.227Z,7.05
2022-12-06T02:31:12.262Z,6.72
2022-12-06T02:33:47.042Z,6.45
2022-12-06T02:36:23.664Z,7.10
2022-12-06T02:38:55.151Z,7.25
2022-12-06T02:41:28.410Z,7.50
2022-12-06T02:43:59.928Z,7.22
2022-12-06T02:46:34.627Z,6.88
2022-12-06T02:49:05.184Z,7.97
2022-12-06T02:51:36.050Z,8.45
2022-12-06T02:54:09.937Z,7.97
2022-12-06T02:56:37.811Z,8.43
2022-12-06T02:59:05.917Z,7.65
2022-12-06T03:01:42.024Z,8.02
2022-12-06T03:04:46.590Z,6.97
2022-12-06T03:07:32.875Z,8.05
2022-12-06T03:10:26.404Z,7.13
2022-12-06T03:13:05.550Z,7.78
2022-12-06T03:15:41.062Z,8.05
2022-12-06T03:18:17.350Z,7.93
2022-12-06T03:20:51.024Z,7.57
2022-12-06T03:23:24.722Z,6.90
2022-12-06T03:25:54.611Z,7.88
2022-12-06T03:28:23.253Z,8.80
2022-12-06T03:30:54.313Z,8.10
2022-12-06T03:33:27.232Z,8.73
2022-12-06T03:35:56.297Z,8.25
2022-12-06T03:38:30.528Z,8.05
2022-12-06T03:41:02.461Z,8.05
2022-12-06T03:43:30.751Z,7.85
2022-12-06T03:46:05.417Z,8.25
2022-12-06T03:48:39.841Z,9.02
2022-12-06T03:51:11.293Z,8.52
2022-12-06T03:53:47.836Z,9.40
2022-12-06T03:56:16.090Z,8.95
2022-12-06T03:58:43.951Z,8.70
2022-12-06T04:01:11.797Z,9.50
2022-12-06T04:03:41.122Z,9.57
2022-12-06T04:06:10.125Z,9.00
2022-12-06T04:08:38.401Z,9.23
2022-12-06T04:11:06.687Z,9.77
2022-12-06T04:13:35.674Z,9.48
2022-12-06T04:16:04.045Z,9.73
2022-12-06T04:18:30.921Z,9.40
2022-12-06T04:21:19.828Z,10.70
2022-12-06T04:23:50.416Z,9.65
2022-12-06T04:26:20.752Z,10.40
2022-12-06T04:29:06.647Z,9.90
2022-12-06T04:31:52.198Z,10.82
2022-12-06T04:34:37.569Z,10.65
2022-12-06T04:37:25.128Z,10.73
2022-12-06T04:39:53.004Z,10.13
2022-12-06T04:42:38.403Z,10.40
2022-12-06T04:45:07.214Z,9.57
2022-12-06T04:47:35.095Z,10.25
2022-12-06T04:50:03.260Z,10.05
2022-12-06T04:52:35.689Z,10.70
2022-12-06T04:55:04.997Z,9.57
2022-12-06T04:57:32.964Z,9.57
2022-12-06T05:00:01.168Z,9.35
2022-12-06T05:02:29.245Z,10.23
2022-12-06T05:04:57.445Z,9.48
2022-12-06T05:07:25.275Z,9.00
2022-12-06T05:09:54.504Z,9.73
2022-12-06T05:12:22.431Z,10.40
2022-12-06T05:14:50.305Z,8.23
2022-12-06T05:17:18.330Z,9.43
2022-12-06T05:19:46.194Z,9.65
2022-12-06T05:22:14.042Z,10.10
2022-12-06T05:24:41.896Z,9.32
2022-12-06T05:27:11.174Z,8.70
2022-12-06T05:29:39.040Z,8.70
2022-12-06T05:32:07.721Z,10.35
2022-12-06T05:34:35.538Z,9.13
2022-12-06T05:37:03.414Z,9.77
2022-12-06T05:39:31.297Z,9.05
2022-12-06T05:41:59.166Z,9.85
2022-12-06T05:44:28.382Z,8.93
2022-12-06T05:46:56.268Z,8.73
2022-12-06T05:49:24.156Z,8.07
2022-12-06T05:51:52.004Z,8.18
2022-12-06T05:54:20.502Z,7.93
2022-12-06T05:56:50.927Z,7.90
2022-12-06T05:59:18.994Z,8.43
2022-12-06T06:01:48.275Z,8.10
2022-12-06T06:04:16.222Z,8.20
2022-12-06T06:06:44.114Z,6.70
2022-12-06T06:09:11.951Z,7.97
2022-12-06T06:11:39.794Z,7.13
2022-12-06T06:14:07.667Z,8.48
2022-12-06T06:16:35.574Z,7.38
2022-12-06T06:19:04.859Z,7.50
2022-12-06T06:21:33.588Z,7.95
2022-12-06T06:24:01.529Z,7.88
2022-12-06T06:26:29.829Z,7.20
2022-12-06T06:28:57.851Z,6.63
2022-12-06T06:31:25.733Z,6.15
2022-12-06T06:33:53.735Z,6.20
2022-12-06T06:36:22.977Z,6.03
2022-12-06T06:38:50.831Z,6.07
2022-12-06T06:41:18.917Z,6.30
2022-12-06T06:43:46.740Z,5.40
2022-12-06T06:46:14.681Z,6.60
2022-12-06T06:48:42.656Z,6.38
2022-12-06T06:51:12.233Z,5.80
2022-12-06T06:53:42.003Z,5.97
2022-12-06T06:56:10.368Z,5.82
2022-12-06T06:58:38.269Z,5.85
2022-12-06T07:01:08.292Z,5.68
2022-12-06T07:03:37.014Z,6.10
2022-12-06T07:06:09.099Z,5.53
2022-12-06T07:08:37.061Z,6.25
2022-12-06T07:11:06.708Z,5.80
2022-12-06T07:13:34.744Z,5.43
2022-12-06T07:16:04.861Z,5.38
2022-12-06T07:18:33.451Z,5.45
2022-12-06T07:21:03.854Z,5.55
2022-12-06T07:23:33.184Z,6.18
2022-12-06T07:26:02.687Z,5.68
2022-12-06T07:28:31.974Z,5.53
2022-12-06T07:30:59.924Z,5.30
2022-12-06T07:33:27.853Z,5.57
2022-12-06T07:36:12.801Z,5.70
2022-12-06T07:38:42.311Z,5.65
2022-12-06T07:41:30.934Z,5.85
2022-12-06T07:44:20.100Z,5.93
2022-12-06T07:46:48.830Z,6.57
2022-12-06T07:49:18.013Z,7.63
2022-12-06T07:51:46.851Z,5.60
2022-12-06T07:54:15.084Z,5.85
2022-12-06T07:56:43.982Z,5.97
2022-12-06T07:59:13.683Z,6.50
2022-12-06T08:01:41.937Z,5.32
2022-12-06T08:04:10.843Z,5.15
2022-12-06T08:06:38.869Z,4.50
2022-12-06T08:09:07.303Z,4.60
2022-12-06T08:11:35.663Z,4.57
2022-12-06T08:14:04.030Z,4.18
2022-12-06T08:16:33.343Z,6.38
2022-12-06T08:19:01.485Z,7.88
2022-12-06T08:21:29.478Z,8.43
2022-12-06T08:23:57.584Z,6.03
2022-12-06T08:26:25.519Z,5.38
2022-12-06T08:28:53.592Z,5.07
2022-12-06T08:31:24.065Z,3.85
2022-12-06T08:33:53.367Z,3.65
2022-12-06T08:36:22.965Z,3.13
2022-12-06T08:38:52.173Z,5.10
2022-12-06T08:41:40.226Z,5.53
2022-12-06T08:44:11.424Z,6.97
2022-12-06T08:46:39.680Z,7.63
2022-12-06T08:49:09.001Z,6.82
2022-12-06T08:51:37.580Z,7.40
2022-12-06T08:54:06.779Z,6.63
2022-12-06T08:56:34.920Z,6.47
2022-12-06T08:59:02.868Z,6.85
2022-12-06T09:01:37.855Z,6.47
2022-12-06T09:04:09.397Z,5.80
2022-12-06T09:06:39.324Z,5.00
2022-12-06T09:09:07.870Z,6.53
2022-12-06T09:11:35.756Z,5.85
2022-12-06T09:14:03.722Z,6.95
2022-12-06T09:16:32.117Z,5.10
2022-12-06T09:19:00.032Z,6.28
2022-12-06T09:21:30.631Z,6.47
2022-12-06T09:23:59.557Z,6.00
2022-12-06T09:26:28.307Z,6.50
2022-12-06T09:28:57.611Z,6.30
2022-12-06T09:31:26.446Z,6.18
2022-12-06T09:33:54.385Z,6.25
2022-12-06T09:36:24.994Z,6.50
2022-12-06T09:38:58.420Z,5.75
2022-12-06T09:42:09.439Z,6.25
2022-12-06T09:44:56.649Z,5.75
2022-12-06T09:47:36.269Z,6.30
2022-12-06T09:50:13.471Z,7.90
2022-12-06T09:52:57.189Z,7.55
2022-12-06T09:55:39.435Z,8.20
2022-12-06T09:58:18.731Z,8.10
2022-12-06T10:00:50.443Z,7.45
2022-12-06T10:03:37.895Z,6.88
2022-12-06T10:06:13.060Z,6.50
2022-12-06T10:09:01.620Z,5.38
2022-12-06T10:11:49.369Z,5.47
2022-12-06T10:14:30.498Z,6.15
2022-12-06T10:17:09.428Z,5.63
2022-12-06T10:19:51.328Z,5.47
2022-12-06T10:22:31.632Z,5.53
2022-12-06T10:25:07.464Z,5.47
2022-12-06T10:27:39.870Z,5.60
2022-12-06T10:30:11.483Z,5.75
2022-12-06T10:32:52.706Z,5.55
2022-12-06T10:35:34.278Z,5.85
2022-12-06T10:38:12.311Z,5.50
2022-12-06T10:40:51.633Z,5.68
2022-12-06T10:43:27.084Z,6.53
2022-12-06T10:46:24.119Z,6.10
2022-12-06T10:49:01.884Z,5.55
2022-12-06T10:51:36.952Z,6.57
2022-12-06T10:54:14.479Z,6.88
2022-12-06T10:56:44.473Z,7.70
2022-12-06T10:59:24.928Z,5.97
2022-12-06T11:01:54.240Z,5.93
2022-12-06T11:04:26.485Z,5.18
2022-12-06T11:06:59.749Z,4.97
2022-12-06T11:09:39.006Z,4.70
2022-12-06T11:12:24.176Z,5.40
2022-12-06T11:14:59.770Z,6.13
2022-12-06T11:17:31.073Z,6.22
2022-12-06T11:20:04.780Z,5.88
2022-12-06T11:22:41.996Z,6.63
2022-12-06T11:25:18.996Z,6.10
2022-12-06T11:27:53.632Z,6.35
2022-12-06T11:30:23.112Z,6.53
2022-12-06T11:32:52.972Z,6.43
2022-12-06T11:35:23.089Z,7.38
2022-12-06T11:37:55.220Z,6.68
2022-12-06T11:40:27.784Z,5.28
2022-12-06T11:42:57.786Z,6.15
2022-12-06T11:45:31.016Z,6.50
2022-12-06T11:48:01.952Z,7.22
2022-12-06T11:50:31.547Z,7.53
2022-12-06T11:53:03.897Z,6.70
2022-12-06T11:55:37.852Z,6.53
2022-12-06T11:58:10.690Z,6.57
2022-12-06T12:00:57.615Z,5.85
2022-12-06T12:03:29.954Z,6.35
2022-12-06T12:06:26.534Z,5.53
2022-12-06T12:09:01.123Z,5.82
2022-12-06T12:11:32.230Z,6.57
2022-12-06T12:14:04.043Z,5.55
2022-12-06T12:16:37.451Z,5.85
2022-12-06T12:19:21.830Z,6.28
2022-12-06T12:21:54.300Z,6.10
2022-12-06T12:27:45.235Z,5.88
2022-12-06T12:30:26.357Z,6.93
2022-12-06T12:33:15.179Z,6.85
2022-12-06T12:35:45.159Z,5.50
2022-12-06T12:38:22.183Z,5.75
2022-12-06T12:40:53.406Z,6.20
2022-12-06T12:43:24.317Z,5.53
2022-12-06T12:46:17.823Z,6.13
2022-12-06T12:48:49.559Z,6.20
2022-12-06T12:51:34.112Z,6.65
2022-12-06T12:54:04.894Z,6.50
2022-12-06T12:56:36.091Z,6.15
2022-12-06T12:59:07.831Z,6.85
2022-12-06T13:01:45.004Z,5.95
2022-12-06T13:04:25.027Z,5.88
2022-12-06T13:06:56.985Z,6.35
2022-12-06T13:09:29.269Z,7.00
2022-12-06T13:12:03.502Z,6.35
2022-12-06T13:14:34.029Z,7.25
2022-12-06T13:17:07.933Z,6.38
2022-12-06T13:19:41.712Z,5.78
2022-12-06T13:22:17.448Z,5.97
2022-12-06T13:24:48.445Z,6.07
2022-12-06T13:27:20.809Z,7.35
2022-12-06T13:29:55.312Z,6.28
2022-12-06T13:32:29.182Z,7.65
2022-12-06T13:35:01.011Z,7.22
2022-12-06T13:37:37.197Z,8.23
2022-12-06T13:40:06.869Z,8.30
2022-12-06T13:42:46.797Z,7.93
2022-12-06T13:45:41.571Z,6.88
2022-12-06T13:48:37.343Z,7.35
2022-12-06T13:51:12.778Z,6.32
2022-12-06T13:54:14.135Z,6.68
2022-12-06T13:56:42.627Z,6.78
2022-12-06T13:59:40.671Z,6.55
2022-12-06T14:02:51.061Z,6.60
2022-12-06T14:08:36.296Z,6.03
2022-12-06T14:11:21.302Z,6.35
2022-12-06T14:13:59.684Z,6.20
2022-12-06T14:16:32.688Z,5.82
2022-12-06T14:19:01.354Z,5.47
2022-12-06T14:21:35.878Z,6.18
2022-12-06T14:24:06.102Z,6.53
2022-12-06T14:26:36.152Z,5.45
2022-12-06T14:29:04.106Z,5.45
2022-12-06T14:31:41.065Z,5.70
2022-12-06T14:34:26.410Z,4.93
2022-12-06T14:36:55.086Z,5.35
2022-12-06T14:39:27.341Z,4.78
2022-12-06T14:42:14.691Z,5.13
2022-12-06T14:44:49.365Z,4.88
2022-12-06T14:47:18.853Z,4.60
2022-12-06T14:50:09.642Z,4.35
2022-12-06T14:52:37.849Z,4.47
2022-12-06T14:55:19.115Z,4.60
2022-12-06T14:57:49.146Z,5.07
2022-12-06T15:00:26.675Z,5.22
2022-12-06T15:03:04.692Z,4.90
2022-12-06T15:05:34.524Z,5.30
2022-12-06T15:08:30.369Z,4.95
2022-12-06T15:11:03.119Z,4.65
2022-12-06T15:13:30.177Z,4.32
2022-12-06T15:16:15.258Z,4.60
2022-12-06T15:18:45.930Z,4.60
2022-12-06T15:21:15.261Z,4.95
2022-12-06T15:23:49.788Z,4.63
2022-12-06T15:26:20.673Z,4.95
2022-12-06T15:28:48.973Z,4.80
2022-12-06T15:31:20.175Z,5.07
2022-12-06T15:33:48.750Z,4.80
2022-12-06T15:36:19.163Z,4.60
2022-12-06T15:38:47.316Z,4.63
2022-12-06T15:41:18.965Z,4.65
2022-12-06T15:43:47.064Z,5.38
2022-12-06T15:46:19.998Z,5.05
2022-12-06T15:48:48.517Z,4.88
2022-12-06T15:51:20.971Z,5.45
2022-12-06T15:53:50.022Z,4.88
2022-12-06T15:56:21.841Z,5.00
2022-12-06T15:58:50.771Z,4.57
2022-12-06T16:01:21.515Z,5.13
2022-12-06T16:03:49.520Z,4.93
2022-12-06T16:06:19.271Z,5.43
2022-12-06T16:08:48.431Z,5.28
2022-12-06T16:11:18.541Z,4.70
2022-12-06T16:13:48.054Z,4.70
2022-12-06T16:16:16.616Z,5.63
2022-12-06T16:18:44.796Z,5.10
2022-12-06T16:21:21.494Z,5.40
2022-12-06T16:24:14.168Z,5.20
2022-12-06T16:26:45.220Z,5.30
2022-12-06T16:29:17.036Z,4.80
2022-12-06T16:31:46.796Z,5.53
2022-12-06T16:34:15.794Z,5.80
2022-12-06T16:37:01.423Z,5.57
2022-12-06T16:39:31.078Z,5.65
2022-12-06T16:41:58.945Z,5.80
2022-12-06T16:44:28.771Z,6.38
2022-12-06T16:46:57.069Z,5.88
2022-12-06T16:52:14.988Z,6.35
2022-12-06T16:54:43.001Z,6.22
2022-12-06T16:57:12.255Z,7.05
2022-12-06T16:59:42.411Z,6.85
2022-12-06T17:02:26.445Z,6.57
2022-12-06T17:04:54.713Z,6.38
2022-12-06T17:07:22.791Z,7.35
2022-12-06T17:09:50.731Z,7.00
2022-12-06T17:12:18.877Z,6.78
2022-12-06T17:14:48.226Z,6.70
2022-12-06T17:17:19.251Z,6.25
2022-12-06T17:19:47.227Z,7.18
2022-12-06T17:22:16.821Z,6.53
2022-12-06T17:24:44.970Z,6.85
2022-12-06T17:27:14.743Z,7.20
2022-12-06T17:29:44.043Z,6.60
2022-12-06T17:32:14.364Z,6.32
2022-12-06T17:34:42.487Z,6.65
2022-12-06T17:37:10.779Z,6.30
2022-12-06T17:39:38.695Z,6.30
2022-12-06T17:42:24.777Z,6.63
2022-12-06T17:44:52.952Z,6.82
2022-12-06T17:47:22.379Z,7.05
2022-12-06T17:49:50.257Z,6.70
2022-12-06T17:52:18.475Z,7.47
2022-12-06T17:54:46.296Z,7.10
2022-12-06T17:57:17.262Z,7.05
2022-12-06T17:59:46.565Z,6.13
2022-12-06T18:02:17.269Z,6.90
2022-12-06T18:04:48.289Z,6.32
2022-12-06T18:07:18.092Z,6.75
2022-12-06T18:09:46.559Z,7.45
2022-12-06T18:12:16.423Z,6.63
2022-12-06T18:14:44.487Z,6.38
2022-12-06T18:17:12.923Z,7.07
2022-12-06T18:19:42.022Z,7.05
2022-12-06T18:22:11.420Z,6.75
2022-12-06T18:24:39.275Z,7.50
2022-12-06T18:27:07.955Z,7.18
2022-12-06T18:29:36.421Z,7.15
2022-12-06T18:32:04.842Z,7.10
2022-12-06T18:34:32.993Z,7.38
2022-12-06T18:37:01.020Z,7.47
2022-12-06T18:39:30.447Z,6.57
2022-12-06T18:41:58.626Z,7.30
2022-12-06T18:44:26.903Z,7.05
2022-12-06T18:46:54.785Z,6.85
2022-12-06T18:49:22.735Z,7.60
2022-12-06T18:51:50.760Z,7.88
2022-12-06T18:54:18.816Z,6.82
2022-12-06T18:56:48.076Z,6.97
2022-12-06T18:59:15.932Z,7.63
2022-12-06T19:01:43.924Z,7.63
2022-12-06T19:04:14.928Z,7.18
2022-12-06T19:06:44.790Z,7.68
2022-12-06T19:09:15.620Z,7.90
2022-12-06T19:11:45.910Z,7.13
2022-12-06T19:14:16.543Z,6.90
2022-12-06T19:16:46.340Z,7.10
2022-12-06T19:19:17.350Z,7.72
2022-12-06T19:21:46.682Z,7.22
2022-12-06T19:24:17.430Z,6.80
2022-12-06T19:26:46.047Z,7.78
2022-12-06T19:29:16.486Z,6.90
2022-12-06T19:31:44.433Z,7.05
2022-12-06T19:34:16.758Z,6.88
2022-12-06T19:36:45.769Z,7.63
2022-12-06T19:39:14.522Z,7.13
2022-12-06T19:42:00.977Z,7.55
2022-12-06T19:44:31.118Z,8.07
2022-12-06T19:46:59.879Z,7.07
2022-12-06T19:49:29.012Z,7.43
2022-12-06T19:51:57.356Z,6.88
2022-12-06T19:54:27.200Z,7.15
2022-12-06T19:56:57.028Z,7.22
2022-12-06T19:59:26.674Z,6.80
2022-12-06T20:01:58.248Z,7.18
2022-12-06T20:04:28.418Z,6.93
2022-12-06T20:06:57.083Z,7.38
2022-12-06T20:09:28.020Z,7.13
2022-12-06T20:12:02.995Z,7.38
2022-12-06T20:14:34.838Z,7.72
2022-12-06T20:17:05.664Z,7.45
2022-12-06T20:19:33.875Z,7.13
2022-12-06T20:22:01.925Z,7.75
2022-12-06T20:24:30.000Z,7.38
2022-12-06T20:26:57.931Z,8.45
2022-12-06T20:29:27.140Z,7.05
2022-12-06T20:31:58.076Z,7.72
2022-12-06T20:34:28.912Z,8.07
2022-12-06T20:36:57.244Z,7.90
2022-12-06T20:39:27.749Z,7.60
2022-12-06T20:41:55.716Z,7.05
2022-12-06T20:44:24.181Z,7.22
2022-12-06T20:46:53.591Z,7.32
2022-12-06T20:49:21.839Z,7.35
2022-12-06T20:51:53.463Z,7.05
2022-12-06T20:54:23.116Z,7.35
2022-12-06T20:56:53.501Z,8.10
2022-12-06T20:59:21.936Z,7.90
2022-12-06T21:01:50.127Z,7.97
2022-12-06T21:04:18.473Z,8.52
2022-12-06T21:06:46.421Z,8.82
2022-12-06T21:09:15.693Z,8.00
2022-12-06T21:11:43.558Z,7.88
2022-12-06T21:14:13.678Z,8.75
2022-12-06T21:16:42.868Z,8.65
2022-12-06T21:19:14.385Z,8.68
2022-12-06T21:21:45.386Z,9.15
2022-12-06T21:24:17.701Z,8.40
2022-12-06T21:26:46.114Z,8.25
2022-12-06T21:29:16.777Z,9.07
2022-12-06T21:31:44.805Z,8.85
2022-12-06T21:34:13.624Z,8.82
2022-12-06T21:36:42.099Z,8.10
2022-12-06T21:39:11.716Z,8.60
2022-12-06T21:41:41.519Z,8.23
2022-12-06T21:44:09.522Z,8.00
2022-12-06T21:46:37.501Z,8.75
2022-12-06T21:49:05.656Z,8.55
2022-12-06T21:51:33.804Z,8.57
2022-12-06T21:54:01.925Z,8.35
2022-12-06T21:56:31.650Z,8.80
2022-12-06T21:59:01.526Z,8.82
2022-12-06T22:01:31.147Z,8.77
2022-12-06T22:04:01.125Z,8.90
2022-12-06T22:06:29.041Z,8.65
2022-12-06T22:08:58.650Z,8.98
2022-12-06T22:11:26.701Z,8.32
2022-12-06T22:13:54.578Z,8.95
2022-12-06T22:16:23.877Z,8.55
2022-12-06T22:18:54.943Z,8.90
2022-12-06T22:21:25.415Z,8.70
2022-12-06T22:23:53.792Z,9.10
2022-12-06T22:26:23.717Z,8.75
2022-12-06T22:28:51.849Z,8.77
2022-12-06T22:31:21.821Z,7.88
2022-12-06T22:33:52.489Z,8.82
2022-12-06T22:36:22.433Z,8.25
2022-12-06T22:38:51.176Z,9.40
2022-12-06T22:41:19.566Z,9.18
2022-12-06T22:43:50.819Z,9.23
2022-12-06T22:46:19.202Z,8.10
2022-12-06T22:48:47.826Z,8.43
2022-12-06T22:51:19.196Z,8.07
2022-12-06T22:53:48.715Z,8.57
2022-12-06T22:56:16.877Z,9.43
2022-12-06T22:58:45.063Z,9.15
2022-12-06T23:01:16.820Z,8.20
2022-12-06T23:03:45.689Z,9.45
2022-12-06T23:06:14.389Z,8.68
2022-12-06T23:08:44.060Z,8.88
2022-12-06T23:11:14.152Z,9.18
2022-12-06T23:13:42.155Z,9.27
2022-12-06T23:16:13.128Z,9.32
2022-12-06T23:18:41.330Z,9.32
2022-12-06T23:21:11.922Z,8.65
2022-12-06T23:23:41.259Z,9.23
2022-12-06T23:26:13.625Z,9.80
2022-12-06T23:28:41.764Z,9.63
2022-12-06T23:31:12.870Z,9.50
2022-12-06T23:33:41.478Z,10.05
2022-12-06T23:36:12.303Z,10.25
2022-12-06T23:38:40.931Z,10.38
2022-12-06T23:41:12.547Z,10.23
2022-12-06T23:43:41.122Z,9.88
2022-12-06T23:46:11.855Z,10.90
2022-12-06T23:48:40.771Z,9.63
2022-12-06T23:51:10.541Z,11.57
2022-12-06T23:53:39.203Z,11.10
2022-12-06T23:56:11.058Z,10.45
2022-12-06T23:58:39.468Z,10.57
